sensor_id;sensor_type;location;lat;lon;timestamp;P1;durP1;ratioP1;P2;durP2;ratioP2
45848;SDS011;31567;54.600;9.842;2023-08-12T00:03:21;3.97;;;3.33;;
45848;SDS011;31567;54.600;9.842;2023-08-12T00:07:01;4.07;;;3.78;;
45848;SDS011;31567;54.600;9.842;2023-08-12T00:10:40;3.83;;;3.53;;
45848;SDS011;31567;54.600;9.842;2023-08-12T00:14:20;5.28;;;3.17;;
45848;SDS011;31567;54.600;9.842;2023-08-12T00:17:59;4.00;;;3.20;;
45848;SDS011;31567;54.600;9.842;2023-08-12T00:21:39;3.42;;;3.05;;
45848;SDS011;31567;54.600;9.842;2023-08-12T00:25:19;5.45;;;3.35;;
45848;SDS011;31567;54.600;9.842;2023-08-12T00:28:58;5.03;;;3.22;;
45848;SDS011;31567;54.600;9.842;2023-08-12T00:32:38;3.90;;;3.47;;
45848;SDS011;31567;54.600;9.842;2023-08-12T00:36:17;4.10;;;3.70;;
45848;SDS011;31567;54.600;9.842;2023-08-12T00:39:57;8.30;;;4.18;;
45848;SDS011;31567;54.600;9.842;2023-08-12T00:43:36;4.28;;;3.88;;
45848;SDS011;31567;54.600;9.842;2023-08-12T00:47:16;5.22;;;4.68;;
45848;SDS011;31567;54.600;9.842;2023-08-12T00:50:56;6.18;;;5.68;;
45848;SDS011;31567;54.600;9.842;2023-08-12T00:54:35;6.85;;;5.95;;
45848;SDS011;31567;54.600;9.842;2023-08-12T00:58:15;8.88;;;6.72;;
45848;SDS011;31567;54.600;9.842;2023-08-12T01:01:55;9.55;;;6.40;;
45848;SDS011;31567;54.600;9.842;2023-08-12T01:05:35;7.20;;;6.50;;
45848;SDS011;31567;54.600;9.842;2023-08-12T01:09:14;11.25;;;7.85;;
45848;SDS011;31567;54.600;9.842;2023-08-12T01:13:08;8.18;;;7.43;;
45848;SDS011;31567;54.600;9.842;2023-08-12T01:17:11;11.57;;;8.75;;
45848;SDS011;31567;54.600;9.842;2023-08-12T01:20:53;9.38;;;8.40;;
45848;SDS011;31567;54.600;9.842;2023-08-12T01:28:16;10.73;;;8.80;;
45848;SDS011;31567;54.600;9.842;2023-08-12T01:31:58;9.65;;;8.60;;
45848;SDS011;31567;54.600;9.842;2023-08-12T01:35:47;10.02;;;9.23;;
45848;SDS011;31567;54.600;9.842;2023-08-12T01:39:31;8.68;;;7.82;;
45848;SDS011;31567;54.600;9.842;2023-08-12T01:43:13;11.82;;;8.45;;
45848;SDS011;31567;54.600;9.842;2023-08-12T01:46:53;10.68;;;9.55;;
45848;SDS011;31567;54.600;9.842;2023-08-12T01:50:33;11.10;;;8.80;;
45848;SDS011;31567;54.600;9.842;2023-08-12T01:54:12;9.25;;;8.30;;
45848;SDS011;31567;54.600;9.842;2023-08-12T01:57:52;10.63;;;9.45;;
45848;SDS011;31567;54.600;9.842;2023-08-12T02:01:31;14.20;;;11.38;;
45848;SDS011;31567;54.600;9.842;2023-08-12T02:05:11;10.63;;;9.38;;
45848;SDS011;31567;54.600;9.842;2023-08-12T02:08:51;10.50;;;9.45;;
45848;SDS011;31567;54.600;9.842;2023-08-12T02:12:31;10.48;;;9.32;;
45848;SDS011;31567;54.600;9.842;2023-08-12T02:16:11;13.40;;;12.02;;
45848;SDS011;31567;54.600;9.842;2023-08-12T02:19:50;10.73;;;9.73;;
45848;SDS011;31567;54.600;9.842;2023-08-12T02:23:30;10.60;;;9.60;;
45848;SDS011;31567;54.600;9.842;2023-08-12T02:27:09;8.63;;;7.93;;
45848;SDS011;31567;54.600;9.842;2023-08-12T02:30:49;11.75;;;10.55;;
45848;SDS011;31567;54.600;9.842;2023-08-12T02:34:28;13.05;;;11.63;;
45848;SDS011;31567;54.600;9.842;2023-08-12T02:38:08;11.32;;;10.43;;
45848;SDS011;31567;54.600;9.842;2023-08-12T02:41:47;11.20;;;10.07;;
45848;SDS011;31567;54.600;9.842;2023-08-12T02:45:27;13.55;;;10.90;;
45848;SDS011;31567;54.600;9.842;2023-08-12T02:49:06;12.95;;;11.43;;
45848;SDS011;31567;54.600;9.842;2023-08-12T02:52:46;12.95;;;11.68;;
45848;SDS011;31567;54.600;9.842;2023-08-12T02:56:25;12.35;;;11.15;;
45848;SDS011;31567;54.600;9.842;2023-08-12T03:00:05;12.38;;;11.15;;
45848;SDS011;31567;54.600;9.842;2023-08-12T03:03:46;14.65;;;13.35;;
45848;SDS011;31567;54.600;9.842;2023-08-12T03:07:26;14.20;;;12.80;;
45848;SDS011;31567;54.600;9.842;2023-08-12T03:11:05;14.30;;;12.85;;
45848;SDS011;31567;54.600;9.842;2023-08-12T03:14:45;14.68;;;13.32;;
45848;SDS011;31567;54.600;9.842;2023-08-12T03:18:25;15.07;;;12.95;;
45848;SDS011;31567;54.600;9.842;2023-08-12T03:22:04;71.30;;;19.10;;
45848;SDS011;31567;54.600;9.842;2023-08-12T03:25:44;22.40;;;14.55;;
45848;SDS011;31567;54.600;9.842;2023-08-12T03:29:26;37.50;;;16.38;;
45848;SDS011;31567;54.600;9.842;2023-08-12T03:33:05;18.75;;;14.00;;
45848;SDS011;31567;54.600;9.842;2023-08-12T03:36:45;15.50;;;13.63;;
45848;SDS011;31567;54.600;9.842;2023-08-12T03:40:27;13.35;;;12.13;;
45848;SDS011;31567;54.600;9.842;2023-08-12T03:44:06;12.20;;;10.95;;
45848;SDS011;31567;54.600;9.842;2023-08-12T03:47:46;13.65;;;12.25;;
45848;SDS011;31567;54.600;9.842;2023-08-12T03:51:25;18.77;;;13.15;;
45848;SDS011;31567;54.600;9.842;2023-08-12T03:55:05;14.32;;;12.73;;
45848;SDS011;31567;54.600;9.842;2023-08-12T03:58:45;15.13;;;13.50;;
45848;SDS011;31567;54.600;9.842;2023-08-12T04:02:25;14.13;;;12.73;;
45848;SDS011;31567;54.600;9.842;2023-08-12T04:06:04;14.82;;;13.32;;
45848;SDS011;31567;54.600;9.842;2023-08-12T04:09:44;16.75;;;15.07;;
45848;SDS011;31567;54.600;9.842;2023-08-12T04:13:23;14.30;;;12.88;;
45848;SDS011;31567;54.600;9.842;2023-08-12T04:17:03;14.07;;;11.25;;
45848;SDS011;31567;54.600;9.842;2023-08-12T04:20:42;14.55;;;13.25;;
45848;SDS011;31567;54.600;9.842;2023-08-12T04:24:24;16.58;;;12.93;;
45848;SDS011;31567;54.600;9.842;2023-08-12T04:28:04;12.65;;;10.75;;
45848;SDS011;31567;54.600;9.842;2023-08-12T04:31:44;13.50;;;11.43;;
45848;SDS011;31567;54.600;9.842;2023-08-12T04:35:24;12.57;;;10.60;;
45848;SDS011;31567;54.600;9.842;2023-08-12T04:39:03;11.07;;;10.05;;
45848;SDS011;31567;54.600;9.842;2023-08-12T04:42:43;11.88;;;10.68;;
45848;SDS011;31567;54.600;9.842;2023-08-12T04:46:23;14.02;;;10.88;;
45848;SDS011;31567;54.600;9.842;2023-08-12T04:50:02;12.48;;;8.85;;
45848;SDS011;31567;54.600;9.842;2023-08-12T04:53:42;9.63;;;8.63;;
45848;SDS011;31567;54.600;9.842;2023-08-12T04:57:21;9.02;;;8.23;;
45848;SDS011;31567;54.600;9.842;2023-08-12T05:01:01;8.38;;;7.57;;
45848;SDS011;31567;54.600;9.842;2023-08-12T05:04:41;8.68;;;7.85;;
45848;SDS011;31567;54.600;9.842;2023-08-12T05:08:21;11.05;;;9.63;;
45848;SDS011;31567;54.600;9.842;2023-08-12T05:12:00;9.13;;;8.32;;
45848;SDS011;31567;54.600;9.842;2023-08-12T05:15:40;9.00;;;8.20;;
45848;SDS011;31567;54.600;9.842;2023-08-12T05:19:20;9.52;;;8.63;;
45848;SDS011;31567;54.600;9.842;2023-08-12T05:22:59;9.65;;;8.63;;
45848;SDS011;31567;54.600;9.842;2023-08-12T05:26:39;9.65;;;8.80;;
45848;SDS011;31567;54.600;9.842;2023-08-12T05:30:18;9.48;;;8.68;;
45848;SDS011;31567;54.600;9.842;2023-08-12T05:33:58;11.75;;;10.57;;
45848;SDS011;31567;54.600;9.842;2023-08-12T05:37:38;11.05;;;9.95;;
45848;SDS011;31567;54.600;9.842;2023-08-12T05:41:17;11.95;;;10.63;;
45848;SDS011;31567;54.600;9.842;2023-08-12T05:44:57;12.27;;;11.07;;
45848;SDS011;31567;54.600;9.842;2023-08-12T05:48:36;12.15;;;10.95;;
45848;SDS011;31567;54.600;9.842;2023-08-12T05:52:16;12.95;;;10.57;;
45848;SDS011;31567;54.600;9.842;2023-08-12T05:55:55;13.43;;;12.13;;
45848;SDS011;31567;54.600;9.842;2023-08-12T05:59:35;13.32;;;12.00;;
45848;SDS011;31567;54.600;9.842;2023-08-12T06:03:15;13.70;;;12.40;;
45848;SDS011;31567;54.600;9.842;2023-08-12T06:06:54;14.48;;;12.52;;
45848;SDS011;31567;54.600;9.842;2023-08-12T06:10:34;14.57;;;12.90;;
45848;SDS011;31567;54.600;9.842;2023-08-12T06:14:14;15.43;;;13.82;;
45848;SDS011;31567;54.600;9.842;2023-08-12T06:17:53;15.60;;;13.35;;
45848;SDS011;31567;54.600;9.842;2023-08-12T06:21:33;15.25;;;13.65;;
45848;SDS011;31567;54.600;9.842;2023-08-12T06:25:12;16.05;;;14.50;;
45848;SDS011;31567;54.600;9.842;2023-08-12T06:28:52;15.23;;;13.73;;
45848;SDS011;31567;54.600;9.842;2023-08-12T06:32:33;15.05;;;13.45;;
45848;SDS011;31567;54.600;9.842;2023-08-12T06:36:13;11.30;;;10.00;;
45848;SDS011;31567;54.600;9.842;2023-08-12T06:39:52;12.15;;;10.93;;
45848;SDS011;31567;54.600;9.842;2023-08-12T06:43:32;12.40;;;9.68;;
45848;SDS011;31567;54.600;9.842;2023-08-12T06:47:11;11.27;;;9.00;;
45848;SDS011;31567;54.600;9.842;2023-08-12T06:50:54;10.00;;;7.68;;
45848;SDS011;31567;54.600;9.842;2023-08-12T06:54:35;10.38;;;7.25;;
45848;SDS011;31567;54.600;9.842;2023-08-12T06:58:14;8.23;;;7.03;;
45848;SDS011;31567;54.600;9.842;2023-08-12T07:01:54;10.75;;;7.63;;
45848;SDS011;31567;54.600;9.842;2023-08-12T07:05:33;13.55;;;7.18;;
45848;SDS011;31567;54.600;9.842;2023-08-12T07:09:13;11.50;;;7.78;;
45848;SDS011;31567;54.600;9.842;2023-08-12T07:12:53;9.90;;;7.22;;
45848;SDS011;31567;54.600;9.842;2023-08-12T07:16:33;11.15;;;8.10;;
45848;SDS011;31567;54.600;9.842;2023-08-12T07:20:12;12.10;;;7.90;;
45848;SDS011;31567;54.600;9.842;2023-08-12T07:23:52;10.73;;;8.88;;
45848;SDS011;31567;54.600;9.842;2023-08-12T07:27:31;11.38;;;9.02;;
45848;SDS011;31567;54.600;9.842;2023-08-12T07:31:11;12.05;;;9.55;;
45848;SDS011;31567;54.600;9.842;2023-08-12T07:34:50;15.90;;;8.82;;
45848;SDS011;31567;54.600;9.842;2023-08-12T07:38:30;12.85;;;8.57;;
45848;SDS011;31567;54.600;9.842;2023-08-12T07:42:10;10.68;;;8.88;;
45848;SDS011;31567;54.600;9.842;2023-08-12T07:45:51;15.48;;;9.38;;
45848;SDS011;31567;54.600;9.842;2023-08-12T07:49:33;16.95;;;9.13;;
45848;SDS011;31567;54.600;9.842;2023-08-12T07:53:13;9.13;;;8.23;;
45848;SDS011;31567;54.600;9.842;2023-08-12T07:56:52;11.38;;;8.85;;
45848;SDS011;31567;54.600;9.842;2023-08-12T08:00:32;10.95;;;9.27;;
45848;SDS011;31567;54.600;9.842;2023-08-12T08:04:12;17.00;;;10.82;;
45848;SDS011;31567;54.600;9.842;2023-08-12T08:07:52;15.93;;;12.90;;
45848;SDS011;31567;54.600;9.842;2023-08-12T08:11:31;12.55;;;11.25;;
45848;SDS011;31567;54.600;9.842;2023-08-12T08:15:13;15.05;;;12.60;;
45848;SDS011;31567;54.600;9.842;2023-08-12T08:18:52;17.00;;;12.82;;
45848;SDS011;31567;54.600;9.842;2023-08-12T08:22:32;16.67;;;14.48;;
45848;SDS011;31567;54.600;9.842;2023-08-12T08:26:12;16.88;;;13.95;;
45848;SDS011;31567;54.600;9.842;2023-08-12T08:29:52;18.92;;;13.10;;
45848;SDS011;31567;54.600;9.842;2023-08-12T08:33:32;17.15;;;13.35;;
45848;SDS011;31567;54.600;9.842;2023-08-12T08:37:11;18.48;;;14.65;;
45848;SDS011;31567;54.600;9.842;2023-08-12T08:40:51;16.10;;;13.38;;
45848;SDS011;31567;54.600;9.842;2023-08-12T08:44:30;16.90;;;14.98;;
45848;SDS011;31567;54.600;9.842;2023-08-12T08:48:12;16.83;;;13.40;;
45848;SDS011;31567;54.600;9.842;2023-08-12T08:51:52;14.05;;;12.52;;
45848;SDS011;31567;54.600;9.842;2023-08-12T08:55:32;17.25;;;15.10;;
45848;SDS011;31567;54.600;9.842;2023-08-12T08:59:11;18.13;;;13.70;;
45848;SDS011;31567;54.600;9.842;2023-08-12T09:02:51;17.60;;;15.10;;
45848;SDS011;31567;54.600;9.842;2023-08-12T09:06:32;16.70;;;13.75;;
45848;SDS011;31567;54.600;9.842;2023-08-12T09:10:14;14.52;;;13.00;;
45848;SDS011;31567;54.600;9.842;2023-08-12T09:13:53;14.10;;;12.20;;
45848;SDS011;31567;54.600;9.842;2023-08-12T09:17:33;13.95;;;11.90;;
45848;SDS011;31567;54.600;9.842;2023-08-12T09:21:13;12.35;;;10.98;;
45848;SDS011;31567;54.600;9.842;2023-08-12T09:24:57;13.20;;;11.90;;
45848;SDS011;31567;54.600;9.842;2023-08-12T09:28:37;12.15;;;10.88;;
45848;SDS011;31567;54.600;9.842;2023-08-12T09:32:19;15.75;;;11.32;;
45848;SDS011;31567;54.600;9.842;2023-08-12T09:35:59;12.23;;;10.93;;
45848;SDS011;31567;54.600;9.842;2023-08-12T09:39:38;13.93;;;12.52;;
45848;SDS011;31567;54.600;9.842;2023-08-12T09:43:22;14.20;;;12.07;;
45848;SDS011;31567;54.600;9.842;2023-08-12T09:47:03;14.35;;;12.93;;
45848;SDS011;31567;54.600;9.842;2023-08-12T09:50:42;13.77;;;12.38;;
45848;SDS011;31567;54.600;9.842;2023-08-12T09:54:22;14.05;;;12.20;;
45848;SDS011;31567;54.600;9.842;2023-08-12T09:58:05;11.77;;;10.57;;
45848;SDS011;31567;54.600;9.842;2023-08-12T10:01:47;12.25;;;11.00;;
45848;SDS011;31567;54.600;9.842;2023-08-12T10:05:28;12.05;;;10.85;;
45848;SDS011;31567;54.600;9.842;2023-08-12T10:09:11;11.68;;;9.38;;
45848;SDS011;31567;54.600;9.842;2023-08-12T10:12:51;10.38;;;8.95;;
45848;SDS011;31567;54.600;9.842;2023-08-12T10:16:30;9.93;;;8.40;;
45848;SDS011;31567;54.600;9.842;2023-08-12T10:20:17;9.15;;;8.25;;
45848;SDS011;31567;54.600;9.842;2023-08-12T10:24:01;7.93;;;6.82;;
45848;SDS011;31567;54.600;9.842;2023-08-12T10:27:42;7.55;;;6.38;;
45848;SDS011;31567;54.600;9.842;2023-08-12T10:31:22;8.75;;;7.85;;
45848;SDS011;31567;54.600;9.842;2023-08-12T10:35:05;8.07;;;7.15;;
45848;SDS011;31567;54.600;9.842;2023-08-12T10:38:45;7.63;;;6.60;;
45848;SDS011;31567;54.600;9.842;2023-08-12T10:42:41;7.40;;;5.70;;
45848;SDS011;31567;54.600;9.842;2023-08-12T10:46:49;8.20;;;5.38;;
45848;SDS011;31567;54.600;9.842;2023-08-12T10:50:30;6.93;;;5.75;;
45848;SDS011;31567;54.600;9.842;2023-08-12T10:54:14;6.85;;;5.68;;
45848;SDS011;31567;54.600;9.842;2023-08-12T10:58:05;7.83;;;4.87;;
45848;SDS011;31567;54.600;9.842;2023-08-12T11:01:48;8.02;;;6.55;;
45848;SDS011;31567;54.600;9.842;2023-08-12T11:05:35;5.50;;;5.00;;
45848;SDS011;31567;54.600;9.842;2023-08-12T11:09:16;7.32;;;6.53;;
45848;SDS011;31567;54.600;9.842;2023-08-12T11:12:56;5.60;;;5.10;;
45848;SDS011;31567;54.600;9.842;2023-08-12T11:16:37;7.95;;;6.05;;
45848;SDS011;31567;54.600;9.842;2023-08-12T11:20:17;5.00;;;4.43;;
45848;SDS011;31567;54.600;9.842;2023-08-12T11:23:56;7.82;;;5.03;;
45848;SDS011;31567;54.600;9.842;2023-08-12T11:27:43;4.30;;;3.90;;
45848;SDS011;31567;54.600;9.842;2023-08-12T11:31:24;4.80;;;4.05;;
45848;SDS011;31567;54.600;9.842;2023-08-12T11:35:06;3.75;;;3.45;;
45848;SDS011;31567;54.600;9.842;2023-08-12T11:38:47;4.88;;;4.00;;
45848;SDS011;31567;54.600;9.842;2023-08-12T11:42:27;6.07;;;3.22;;
45848;SDS011;31567;54.600;9.842;2023-08-12T11:46:06;5.47;;;3.72;;
45848;SDS011;31567;54.600;9.842;2023-08-12T11:49:46;3.97;;;3.58;;
45848;SDS011;31567;54.600;9.842;2023-08-12T11:53:25;5.28;;;4.03;;
45848;SDS011;31567;54.600;9.842;2023-08-12T11:57:05;4.47;;;4.05;;
45848;SDS011;31567;54.600;9.842;2023-08-12T12:00:46;9.82;;;5.82;;
45848;SDS011;31567;54.600;9.842;2023-08-12T12:04:27;5.30;;;4.90;;
45848;SDS011;31567;54.600;9.842;2023-08-12T12:08:06;12.95;;;7.28;;
45848;SDS011;31567;54.600;9.842;2023-08-12T12:11:51;8.10;;;6.50;;
45848;SDS011;31567;54.600;9.842;2023-08-12T12:15:35;9.52;;;8.05;;
45848;SDS011;31567;54.600;9.842;2023-08-12T12:19:20;10.88;;;9.75;;
45848;SDS011;31567;54.600;9.842;2023-08-12T12:23:05;13.07;;;11.88;;
45848;SDS011;31567;54.600;9.842;2023-08-12T12:26:46;13.60;;;12.20;;
45848;SDS011;31567;54.600;9.842;2023-08-12T12:30:26;45.28;;;15.50;;
45848;SDS011;31567;54.600;9.842;2023-08-12T12:34:07;23.30;;;14.52;;
45848;SDS011;31567;54.600;9.842;2023-08-12T12:37:48;77.30;;;22.77;;
45848;SDS011;31567;54.600;9.842;2023-08-12T12:41:27;52.15;;;18.00;;
45848;SDS011;31567;54.600;9.842;2023-08-12T12:45:07;49.40;;;17.63;;
45848;SDS011;31567;54.600;9.842;2023-08-12T12:48:47;64.70;;;19.98;;
45848;SDS011;31567;54.600;9.842;2023-08-12T12:52:27;24.75;;;14.23;;
45848;SDS011;31567;54.600;9.842;2023-08-12T12:56:06;22.05;;;16.55;;
45848;SDS011;31567;54.600;9.842;2023-08-12T12:59:46;24.10;;;18.05;;
45848;SDS011;31567;54.600;9.842;2023-08-12T13:03:26;25.85;;;18.90;;
45848;SDS011;31567;54.600;9.842;2023-08-12T13:07:05;30.02;;;19.45;;
45848;SDS011;31567;54.600;9.842;2023-08-12T13:10:45;24.00;;;17.42;;
45848;SDS011;31567;54.600;9.842;2023-08-12T13:14:24;20.15;;;13.75;;
45848;SDS011;31567;54.600;9.842;2023-08-12T13:18:04;15.90;;;14.25;;
45848;SDS011;31567;54.600;9.842;2023-08-12T13:21:43;19.98;;;16.17;;
45848;SDS011;31567;54.600;9.842;2023-08-12T13:25:23;13.77;;;11.57;;
45848;SDS011;31567;54.600;9.842;2023-08-12T13:29:03;14.82;;;11.88;;
45848;SDS011;31567;54.600;9.842;2023-08-12T13:32:42;12.85;;;11.02;;
45848;SDS011;31567;54.600;9.842;2023-08-12T13:36:22;19.08;;;9.85;;
45848;SDS011;31567;54.600;9.842;2023-08-12T13:40:02;16.40;;;7.78;;
45848;SDS011;31567;54.600;9.842;2023-08-12T13:43:42;8.38;;;6.50;;
45848;SDS011;31567;54.600;9.842;2023-08-12T13:47:21;7.43;;;6.72;;
45848;SDS011;31567;54.600;9.842;2023-08-12T13:51:01;6.72;;;6.07;;
45848;SDS011;31567;54.600;9.842;2023-08-12T13:54:40;7.03;;;6.43;;
45848;SDS011;31567;54.600;9.842;2023-08-12T13:58:20;6.47;;;5.85;;
45848;SDS011;31567;54.600;9.842;2023-08-12T14:01:59;6.68;;;6.10;;
45848;SDS011;31567;54.600;9.842;2023-08-12T14:05:39;6.70;;;5.63;;
45848;SDS011;31567;54.600;9.842;2023-08-12T14:09:18;4.32;;;3.92;;
45848;SDS011;31567;54.600;9.842;2023-08-12T14:12:59;4.72;;;3.35;;
45848;SDS011;31567;54.600;9.842;2023-08-12T14:16:39;4.53;;;3.92;;
45848;SDS011;31567;54.600;9.842;2023-08-12T14:20:18;3.67;;;3.38;;
45848;SDS011;31567;54.600;9.842;2023-08-12T14:23:58;3.20;;;3.00;;
45848;SDS011;31567;54.600;9.842;2023-08-12T14:27:37;3.97;;;3.67;;
45848;SDS011;31567;54.600;9.842;2023-08-12T14:31:17;5.18;;;3.40;;
45848;SDS011;31567;54.600;9.842;2023-08-12T14:34:56;4.80;;;3.60;;
45848;SDS011;31567;54.600;9.842;2023-08-12T14:38:36;3.17;;;2.20;;
45848;SDS011;31567;54.600;9.842;2023-08-12T14:42:15;2.67;;;1.85;;
45848;SDS011;31567;54.600;9.842;2023-08-12T14:45:55;1.25;;;1.25;;
45848;SDS011;31567;54.600;9.842;2023-08-12T14:49:35;1.35;;;1.20;;
45848;SDS011;31567;54.600;9.842;2023-08-12T14:53:14;1.92;;;1.45;;
45848;SDS011;31567;54.600;9.842;2023-08-12T14:56:54;1.80;;;1.70;;
45848;SDS011;31567;54.600;9.842;2023-08-12T15:00:33;2.08;;;1.80;;
45848;SDS011;31567;54.600;9.842;2023-08-12T15:04:13;2.42;;;2.00;;
45848;SDS011;31567;54.600;9.842;2023-08-12T15:07:52;3.70;;;2.58;;
45848;SDS011;31567;54.600;9.842;2023-08-12T15:11:32;3.42;;;3.03;;
45848;SDS011;31567;54.600;9.842;2023-08-12T15:15:11;3.83;;;3.17;;
45848;SDS011;31567;54.600;9.842;2023-08-12T15:18:51;2.28;;;2.10;;
45848;SDS011;31567;54.600;9.842;2023-08-12T15:22:30;2.15;;;2.03;;
45848;SDS011;31567;54.600;9.842;2023-08-12T15:26:10;1.77;;;1.67;;
45848;SDS011;31567;54.600;9.842;2023-08-12T15:29:50;3.20;;;1.73;;
45848;SDS011;31567;54.600;9.842;2023-08-12T15:33:29;2.10;;;1.90;;
45848;SDS011;31567;54.600;9.842;2023-08-12T15:37:09;1.77;;;1.40;;
45848;SDS011;31567;54.600;9.842;2023-08-12T15:40:49;1.60;;;1.50;;
45848;SDS011;31567;54.600;9.842;2023-08-12T15:44:29;2.10;;;1.90;;
45848;SDS011;31567;54.600;9.842;2023-08-12T15:48:08;5.10;;;1.88;;
45848;SDS011;31567;54.600;9.842;2023-08-12T15:51:48;2.63;;;1.67;;
45848;SDS011;31567;54.600;9.842;2023-08-12T15:55:28;3.65;;;2.15;;
45848;SDS011;31567;54.600;9.842;2023-08-12T15:59:07;8.30;;;2.60;;
45848;SDS011;31567;54.600;9.842;2023-08-12T16:02:48;8.63;;;2.53;;
45848;SDS011;31567;54.600;9.842;2023-08-12T16:06:28;3.08;;;2.08;;
45848;SDS011;31567;54.600;9.842;2023-08-12T16:10:07;2.90;;;2.05;;
45848;SDS011;31567;54.600;9.842;2023-08-12T16:13:47;5.00;;;2.53;;
45848;SDS011;31567;54.600;9.842;2023-08-12T16:17:26;5.88;;;1.95;;
45848;SDS011;31567;54.600;9.842;2023-08-12T16:21:06;7.20;;;3.00;;
45848;SDS011;31567;54.600;9.842;2023-08-12T16:24:45;6.63;;;2.58;;
45848;SDS011;31567;54.600;9.842;2023-08-12T16:28:25;10.93;;;2.63;;
45848;SDS011;31567;54.600;9.842;2023-08-12T16:32:05;10.32;;;2.80;;
45848;SDS011;31567;54.600;9.842;2023-08-12T16:35:45;5.57;;;2.05;;
45848;SDS011;31567;54.600;9.842;2023-08-12T16:39:26;5.50;;;2.70;;
45848;SDS011;31567;54.600;9.842;2023-08-12T16:43:06;4.95;;;3.10;;
45848;SDS011;31567;54.600;9.842;2023-08-12T16:46:46;10.25;;;3.15;;
45848;SDS011;31567;54.600;9.842;2023-08-12T16:50:25;6.53;;;3.40;;
45848;SDS011;31567;54.600;9.842;2023-08-12T16:54:05;3.88;;;2.92;;
45848;SDS011;31567;54.600;9.842;2023-08-12T16:57:44;5.22;;;2.95;;
45848;SDS011;31567;54.600;9.842;2023-08-12T17:01:24;4.43;;;2.92;;
45848;SDS011;31567;54.600;9.842;2023-08-12T17:05:04;6.50;;;2.97;;
45848;SDS011;31567;54.600;9.842;2023-08-12T17:08:44;3.78;;;3.13;;
45848;SDS011;31567;54.600;9.842;2023-08-12T17:12:24;3.78;;;2.78;;
45848;SDS011;31567;54.600;9.842;2023-08-12T17:16:04;5.40;;;2.95;;
45848;SDS011;31567;54.600;9.842;2023-08-12T17:19:43;2.90;;;2.60;;
45848;SDS011;31567;54.600;9.842;2023-08-12T17:23:23;3.10;;;1.92;;
45848;SDS011;31567;54.600;9.842;2023-08-12T17:27:02;3.15;;;1.75;;
45848;SDS011;31567;54.600;9.842;2023-08-12T17:30:42;2.58;;;2.38;;
45848;SDS011;31567;54.600;9.842;2023-08-12T17:34:22;4.95;;;1.95;;
45848;SDS011;31567;54.600;9.842;2023-08-12T17:38:01;1.83;;;1.73;;
45848;SDS011;31567;54.600;9.842;2023-08-12T17:41:41;3.22;;;1.52;;
45848;SDS011;31567;54.600;9.842;2023-08-12T17:45:21;5.38;;;1.63;;
45848;SDS011;31567;54.600;9.842;2023-08-12T17:49:00;2.00;;;1.30;;
45848;SDS011;31567;54.600;9.842;2023-08-12T17:52:40;2.22;;;1.50;;
45848;SDS011;31567;54.600;9.842;2023-08-12T17:56:19;2.63;;;1.40;;
45848;SDS011;31567;54.600;9.842;2023-08-12T17:59:59;1.65;;;1.50;;
45848;SDS011;31567;54.600;9.842;2023-08-12T18:03:38;2.30;;;1.40;;
45848;SDS011;31567;54.600;9.842;2023-08-12T18:07:18;1.70;;;1.60;;
45848;SDS011;31567;54.600;9.842;2023-08-12T18:10:58;1.70;;;1.38;;
45848;SDS011;31567;54.600;9.842;2023-08-12T18:14:39;2.00;;;1.63;;
45848;SDS011;31567;54.600;9.842;2023-08-12T18:18:18;1.45;;;1.38;;
45848;SDS011;31567;54.600;9.842;2023-08-12T18:21:58;3.03;;;1.80;;
45848;SDS011;31567;54.600;9.842;2023-08-12T18:25:37;2.03;;;1.92;;
45848;SDS011;31567;54.600;9.842;2023-08-12T18:29:17;1.90;;;1.80;;
45848;SDS011;31567;54.600;9.842;2023-08-12T18:32:57;2.20;;;1.70;;
45848;SDS011;31567;54.600;9.842;2023-08-12T18:36:36;3.58;;;2.35;;
45848;SDS011;31567;54.600;9.842;2023-08-12T18:40:16;1.95;;;1.75;;
45848;SDS011;31567;54.600;9.842;2023-08-12T18:43:55;2.20;;;2.00;;
45848;SDS011;31567;54.600;9.842;2023-08-12T18:47:35;3.30;;;2.13;;
45848;SDS011;31567;54.600;9.842;2023-08-12T18:51:14;2.20;;;2.10;;
45848;SDS011;31567;54.600;9.842;2023-08-12T18:54:54;2.53;;;2.13;;
45848;SDS011;31567;54.600;9.842;2023-08-12T18:58:34;5.18;;;2.33;;
45848;SDS011;31567;54.600;9.842;2023-08-12T19:02:13;3.40;;;2.50;;
45848;SDS011;31567;54.600;9.842;2023-08-12T19:05:57;4.28;;;2.20;;
45848;SDS011;31567;54.600;9.842;2023-08-12T19:09:38;3.80;;;2.63;;
45848;SDS011;31567;54.600;9.842;2023-08-12T19:13:17;4.45;;;2.30;;
45848;SDS011;31567;54.600;9.842;2023-08-12T19:16:57;3.35;;;2.90;;
45848;SDS011;31567;54.600;9.842;2023-08-12T19:20:36;5.43;;;2.97;;
45848;SDS011;31567;54.600;9.842;2023-08-12T19:24:16;3.03;;;2.45;;
45848;SDS011;31567;54.600;9.842;2023-08-12T19:27:55;4.88;;;2.95;;
45848;SDS011;31567;54.600;9.842;2023-08-12T19:31:35;4.60;;;2.85;;
45848;SDS011;31567;54.600;9.842;2023-08-12T19:35:15;5.80;;;3.10;;
45848;SDS011;31567;54.600;9.842;2023-08-12T19:38:54;4.38;;;3.53;;
45848;SDS011;31567;54.600;9.842;2023-08-12T19:42:34;5.18;;;3.78;;
45848;SDS011;31567;54.600;9.842;2023-08-12T19:46:13;4.65;;;4.07;;
45848;SDS011;31567;54.600;9.842;2023-08-12T19:49:53;4.90;;;4.20;;
45848;SDS011;31567;54.600;9.842;2023-08-12T19:53:32;8.20;;;3.63;;
45848;SDS011;31567;54.600;9.842;2023-08-12T19:57:12;4.25;;;3.20;;
45848;SDS011;31567;54.600;9.842;2023-08-12T20:00:51;4.93;;;3.00;;
45848;SDS011;31567;54.600;9.842;2023-08-12T20:04:31;5.82;;;2.75;;
45848;SDS011;31567;54.600;9.842;2023-08-12T20:08:11;2.97;;;2.38;;
45848;SDS011;31567;54.600;9.842;2023-08-12T20:11:51;8.52;;;3.20;;
45848;SDS011;31567;54.600;9.842;2023-08-12T20:15:30;3.90;;;2.30;;
45848;SDS011;31567;54.600;9.842;2023-08-12T20:19:10;8.45;;;2.97;;
45848;SDS011;31567;54.600;9.842;2023-08-12T20:22:49;2.88;;;2.05;;
45848;SDS011;31567;54.600;9.842;2023-08-12T20:26:29;6.68;;;2.75;;
45848;SDS011;31567;54.600;9.842;2023-08-12T20:30:09;8.02;;;2.90;;
45848;SDS011;31567;54.600;9.842;2023-08-12T20:33:48;5.93;;;2.80;;
45848;SDS011;31567;54.600;9.842;2023-08-12T20:37:29;5.38;;;2.80;;
45848;SDS011;31567;54.600;9.842;2023-08-12T20:41:09;5.65;;;2.80;;
45848;SDS011;31567;54.600;9.842;2023-08-12T20:44:48;7.15;;;2.67;;
45848;SDS011;31567;54.600;9.842;2023-08-12T20:48:28;8.38;;;3.17;;
45848;SDS011;31567;54.600;9.842;2023-08-12T20:52:08;7.25;;;3.50;;
45848;SDS011;31567;54.600;9.842;2023-08-12T20:55:51;8.75;;;3.65;;
45848;SDS011;31567;54.600;9.842;2023-08-12T20:59:30;10.02;;;3.67;;
45848;SDS011;31567;54.600;9.842;2023-08-12T21:03:10;8.95;;;4.07;;
45848;SDS011;31567;54.600;9.842;2023-08-12T21:06:49;8.57;;;3.75;;
45848;SDS011;31567;54.600;9.842;2023-08-12T21:10:35;6.57;;;4.03;;
45848;SDS011;31567;54.600;9.842;2023-08-12T21:14:14;11.80;;;3.80;;
45848;SDS011;31567;54.600;9.842;2023-08-12T21:17:54;14.70;;;4.32;;
45848;SDS011;31567;54.600;9.842;2023-08-12T21:21:33;10.00;;;4.45;;
45848;SDS011;31567;54.600;9.842;2023-08-12T21:25:14;12.40;;;4.13;;
45848;SDS011;31567;54.600;9.842;2023-08-12T21:28:54;13.07;;;4.50;;
45848;SDS011;31567;54.600;9.842;2023-08-12T21:32:33;13.23;;;5.10;;
45848;SDS011;31567;54.600;9.842;2023-08-12T21:36:13;13.13;;;4.88;;
45848;SDS011;31567;54.600;9.842;2023-08-12T21:39:52;11.27;;;5.43;;
45848;SDS011;31567;54.600;9.842;2023-08-12T21:43:32;12.27;;;5.82;;
45848;SDS011;31567;54.600;9.842;2023-08-12T21:47:11;13.27;;;4.93;;
45848;SDS011;31567;54.600;9.842;2023-08-12T21:50:51;16.45;;;5.50;;
45848;SDS011;31567;54.600;9.842;2023-08-12T21:54:31;17.55;;;6.55;;
45848;SDS011;31567;54.600;9.842;2023-08-12T21:58:10;14.57;;;5.25;;